Nolinsk, Russia
Current Conditions -  °F | °C
As of 1:30 AM on Wednesday 22 Oct 2014 (Local Time) from UWKD Reporting Station
Light Snow Light Snow  
Wind Chill: 22°   Ceiling: 400
Heat Index: 32°   Visibility: 3mi
Dew Point: 32°   Wind: 13mph
Humidity: 100%   Direction: 110°ESE
Pressure: 29.23"   Gusts: NA
Location:  57.56°N, 49.94°E
Report Text: UWKD 212130Z 11006MPS 5000 -SNRA OVC004 00/00 Q0990 R11/6/0349TEMPO 2000 BR OVC003 RMK QFE733/0977
Loading
Personal Weather Stations






























Interactive Weather Map
Tropical Storm Tracking
New forecast layout! Learn more

10-Day Weather Forecast

Advertisements
Track Severe Weather on mobile